Terminal Aerodrome Forecast
Issued by NWS

Home | Current Version | Previous Version | Text Only | Print | Product List | Glossary On
Versions: 1 2 3 4 5 6 7 8 9 10 11 12 13
000
FTUS45 KRIW 021135
TAFCOD
TAF
KCOD 021135Z 0212/0312 20008KT P6SM SCT110
     FM021800 25010G20KT P6SM SCT060 SCT100
     FM022100 VRB15G25KT P6SM VCTS BKN060CB
     FM030100 34012G22KT P6SM VCSH BKN080
     FM030300 34010KT P6SM BKN080
     FM030800 VRB05KT P6SM BKN040
      AMD LTD TO CLD VIS AND WIND=

USA.gov is the U.S. government's official web portal to all federal, state and local government web resources and services.